Time;durP1;ratioP1;P1;durP2;ratioP2;P2;SDS_P1;SDS_P2;PMS_P1;PMS_P2;Temp;Humidity;BMP_temperature;BMP_pressure;BME280_temperature;BME280_humidity;BME280_pressure;Samples;Min_cycle;Max_cycle;Signal;HPM_P1;HPM_P2
2024/04/01 00:00:14;;;;;;;2.07;1.80;;;12.00;99.90;;;;;;815613;173;26405;-79
2024/04/01 00:02:40;;;;;;;2.80;1.50;;;11.90;99.90;;;;;;822981;172;26424;-81
2024/04/01 00:05:07;;;;;;;3.70;1.73;;;11.90;99.90;;;;;;827007;172;26410;-80
2024/04/01 00:07:33;;;;;;;3.67;2.20;;;11.90;99.90;;;;;;826533;172;28939;-80
2024/04/01 00:10:00;;;;;;;3.90;2.23;;;11.80;99.90;;;;;;823473;172;26964;-80
2024/04/01 00:12:27;;;;;;;2.73;1.83;;;11.80;99.90;;;;;;821048;173;26427;-80
2024/04/01 00:14:53;;;;;;;3.00;1.63;;;11.80;99.90;;;;;;824981;173;26950;-81
2024/04/01 00:17:20;;;;;;;4.80;2.17;;;11.70;99.90;;;;;;825851;173;26397;-80
2024/04/01 00:19:47;;;;;;;3.60;2.20;;;11.70;99.90;;;;;;818978;173;26524;-80
2024/04/01 00:22:14;;;;;;;4.43;2.10;;;11.70;99.90;;;;;;819171;173;26425;-80
2024/04/01 00:24:40;;;;;;;4.77;2.10;;;11.70;99.90;;;;;;816577;173;26431;-79
2024/04/01 00:27:07;;;;;;;2.63;1.87;;;11.60;99.90;;;;;;823289;173;26549;-81
2024/04/01 00:29:34;;;;;;;4.40;2.90;;;11.60;99.90;;;;;;820496;173;26403;-80
2024/04/01 00:32:00;;;;;;;3.33;1.93;;;11.50;99.90;;;;;;820254;173;26402;-80
2024/04/01 00:34:27;;;;;;;3.77;2.67;;;11.50;99.90;;;;;;820729;174;26409;-80
2024/04/01 00:36:54;;;;;;;3.90;2.73;;;11.60;99.90;;;;;;824951;173;26405;-81
2024/04/01 00:39:20;;;;;;;2.53;1.60;;;11.60;99.90;;;;;;832018;173;26406;-81
2024/04/01 00:41:47;;;;;;;3.83;1.70;;;11.60;99.90;;;;;;823364;171;26401;-80
2024/04/01 00:44:14;;;;;;;4.73;2.57;;;11.60;99.90;;;;;;825381;173;26444;-81
2024/04/01 00:46:40;;;;;;;2.40;1.53;;;11.60;99.90;;;;;;817038;173;26412;-81
2024/04/01 00:49:07;;;;;;;4.73;1.73;;;11.60;99.90;;;;;;821908;173;26403;-80
2024/04/01 00:51:33;;;;;;;5.37;1.90;;;11.50;99.90;;;;;;824088;173;26409;-81
2024/04/01 00:54:00;;;;;;;4.20;1.90;;;11.50;99.90;;;;;;817410;173;26564;-81
2024/04/01 00:56:27;;;;;;;4.57;2.10;;;11.40;99.90;;;;;;822823;173;26495;-81
2024/04/01 00:58:53;;;;;;;2.37;1.63;;;11.40;99.90;;;;;;822738;171;27607;-83
2024/04/01 01:01:20;;;;;;;5.40;1.90;;;11.40;99.90;;;;;;820885;174;26429;-83
2024/04/01 01:03:54;;;;;;;2.87;1.70;;;11.40;99.90;;;;;;816972;173;26406;-81
2024/04/01 01:06:26;;;;;;;2.77;1.90;;;11.40;99.90;;;;;;818288;173;28073;-80
2024/04/01 01:09:02;;;;;;;2.40;1.60;;;11.40;99.90;;;;;;814902;173;26421;-82
2024/04/01 01:11:34;;;;;;;1.80;1.60;;;11.30;99.90;;;;;;822451;173;26466;-79
2024/04/01 01:14:09;;;;;;;3.33;1.80;;;11.40;99.90;;;;;;823754;172;26473;-80
2024/04/01 01:16:40;;;;;;;3.83;1.97;;;11.30;99.90;;;;;;829315;172;26515;-80
2024/04/01 01:19:12;;;;;;;2.70;1.83;;;11.30;99.90;;;;;;823815;172;26397;-80
2024/04/01 01:21:42;;;;;;;2.73;1.80;;;11.30;99.90;;;;;;832156;172;26399;-81
2024/04/01 01:24:13;;;;;;;4.13;1.97;;;11.40;99.90;;;;;;823850;170;26448;-80
2024/04/01 01:26:45;;;;;;;3.03;1.60;;;11.40;99.90;;;;;;819865;174;26396;-82
2024/04/01 01:29:15;;;;;;;3.03;1.60;;;11.40;99.90;;;;;;822827;170;26416;-82
2024/04/01 01:32:00;;;;;;;3.10;1.90;;;11.30;99.90;;;;;;823959;173;26412;-81
2024/04/01 01:34:33;;;;;;;3.90;2.80;;;11.30;99.90;;;;;;820921;174;26419;-81
2024/04/01 01:37:05;;;;;;;4.20;1.90;;;11.30;99.90;;;;;;823516;173;26433;-81
2024/04/01 01:39:43;;;;;;;4.33;1.93;;;11.30;99.90;;;;;;822293;173;26403;-82
2024/04/01 01:42:13;;;;;;;2.83;1.53;;;11.30;99.90;;;;;;826558;173;26444;-82
2024/04/01 01:44:41;;;;;;;2.33;1.70;;;11.30;99.90;;;;;;819008;171;26417;-82
2024/04/01 01:47:17;;;;;;;2.13;1.70;;;11.20;99.90;;;;;;831174;173;27028;-81
2024/04/01 01:49:48;;;;;;;2.73;1.50;;;11.20;99.90;;;;;;824138;173;26409;-81
2024/04/01 01:52:20;;;;;;;3.40;1.90;;;11.20;99.90;;;;;;815250;173;26416;-82
2024/04/01 01:54:53;;;;;;;2.67;1.67;;;11.30;99.90;;;;;;823734;173;26388;-81
2024/04/01 01:57:22;;;;;;;2.30;1.70;;;11.40;99.90;;;;;;823555;173;26542;-81
2024/04/01 01:59:52;;;;;;;5.47;2.00;;;11.40;99.90;;;;;;827117;173;26456;-82
2024/04/01 02:02:23;;;;;;;4.90;2.10;;;11.40;99.90;;;;;;819687;173;26409;-80
2024/04/01 02:04:55;;;;;;;3.90;1.87;;;11.30;99.90;;;;;;823934;174;26414;-80
2024/04/01 02:07:25;;;;;;;3.30;1.80;;;11.20;99.90;;;;;;826017;173;26827;-82
2024/04/01 02:09:52;;;;;;;2.70;1.70;;;11.30;99.90;;;;;;825545;171;26406;-82
2024/04/01 02:12:18;;;;;;;2.60;1.70;;;11.30;99.90;;;;;;825974;173;26439;-80
2024/04/01 02:14:45;;;;;;;6.70;1.90;;;11.30;99.90;;;;;;817627;173;26446;-80
2024/04/01 02:17:11;;;;;;;3.40;1.80;;;11.20;99.90;;;;;;821563;174;26408;-81
2024/04/01 02:19:38;;;;;;;5.23;2.13;;;11.20;99.90;;;;;;822635;173;26404;-81
2024/04/01 02:22:12;;;;;;;2.80;1.80;;;11.20;99.90;;;;;;824525;171;26530;-82
2024/04/01 02:24:31;;;;;;;2.57;1.60;;;11.10;99.90;;;;;;824982;173;26416;-81
2024/04/01 02:26:58;;;;;;;3.33;2.10;;;11.10;99.90;;;;;;825425;171;26395;-81
2024/04/01 02:29:24;;;;;;;5.40;1.80;;;11.00;99.90;;;;;;824842;171;26451;-82
2024/04/01 02:31:51;;;;;;;2.07;1.70;;;10.90;99.90;;;;;;822830;174;26385;-80
2024/04/01 02:34:18;;;;;;;2.93;1.93;;;10.90;99.90;;;;;;817426;173;26421;-82
2024/04/01 02:36:44;;;;;;;4.67;2.77;;;10.90;99.90;;;;;;824503;173;26401;-81
2024/04/01 02:39:16;;;;;;;4.70;1.70;;;10.90;99.90;;;;;;823091;171;26430;-81
2024/04/01 02:41:38;;;;;;;5.23;2.03;;;11.00;99.90;;;;;;820027;173;26418;-81
2024/04/01 02:44:05;;;;;;;4.03;1.90;;;11.00;99.90;;;;;;820372;173;26426;-82
2024/04/01 02:46:31;;;;;;;3.73;1.80;;;11.10;99.90;;;;;;829357;173;26406;-80
2024/04/01 02:48:58;;;;;;;3.70;1.80;;;11.10;99.90;;;;;;823803;173;26543;-80
2024/04/01 02:51:24;;;;;;;3.20;1.70;;;11.20;99.90;;;;;;827724;171;26415;-79
2024/04/01 02:53:51;;;;;;;3.07;1.90;;;11.10;99.90;;;;;;829930;173;26396;-81
2024/04/01 02:56:18;;;;;;;5.50;2.13;;;11.10;99.90;;;;;;824520;173;26408;-81
2024/04/01 02:58:44;;;;;;;4.40;2.10;;;11.00;99.90;;;;;;821386;173;27580;-80
2024/04/01 03:01:11;;;;;;;5.70;2.13;;;10.90;99.90;;;;;;821840;174;26441;-81
2024/04/01 03:03:38;;;;;;;3.37;1.97;;;10.90;99.90;;;;;;823314;173;26422;-79
2024/04/01 03:06:06;;;;;;;2.30;1.80;;;10.90;99.90;;;;;;817112;174;26405;-80
2024/04/01 03:08:31;;;;;;;5.07;2.00;;;10.90;99.90;;;;;;821005;171;26389;-81
2024/04/01 03:10:59;;;;;;;4.10;2.47;;;10.80;99.90;;;;;;816724;173;26390;-80
2024/04/01 03:13:27;;;;;;;3.57;2.13;;;10.80;99.90;;;;;;827881;173;26430;-80
2024/04/01 03:15:54;;;;;;;3.80;2.27;;;10.80;99.90;;;;;;819226;173;26406;-80
2024/04/01 03:18:21;;;;;;;3.63;2.10;;;10.80;99.90;;;;;;819479;173;26420;-81
2024/04/01 03:20:47;;;;;;;2.90;1.80;;;10.70;99.90;;;;;;827042;173;26414;-81
2024/04/01 03:23:14;;;;;;;4.20;2.40;;;10.70;99.90;;;;;;814915;173;26416;-81
2024/04/01 03:25:40;;;;;;;3.90;2.27;;;10.60;99.90;;;;;;821910;174;26410;-80
2024/04/01 03:28:07;;;;;;;4.10;2.20;;;10.60;99.90;;;;;;825574;173;26513;-78
2024/04/01 03:30:33;;;;;;;3.17;1.87;;;10.60;99.90;;;;;;815729;173;26424;-79
2024/04/01 03:33:00;;;;;;;4.13;2.20;;;10.60;99.90;;;;;;820060;173;26550;-80
2024/04/01 03:35:27;;;;;;;3.03;2.17;;;10.50;99.90;;;;;;820927;173;26540;-80
2024/04/01 03:37:53;;;;;;;2.70;2.00;;;10.50;99.90;;;;;;819979;172;26403;-81
2024/04/01 03:40:20;;;;;;;3.33;2.27;;;10.50;99.90;;;;;;824042;173;26444;-80
2024/04/01 03:42:46;;;;;;;4.63;1.90;;;10.50;99.90;;;;;;827363;172;26406;-80
2024/04/01 03:45:13;;;;;;;2.57;2.20;;;10.50;99.90;;;;;;822135;171;26540;-80
2024/04/01 03:47:41;;;;;;;2.37;2.10;;;10.60;99.90;;;;;;823714;173;26633;-81
2024/04/01 03:50:11;;;;;;;3.73;2.30;;;10.50;99.90;;;;;;822008;173;26407;-81
2024/04/01 03:52:35;;;;;;;4.10;2.23;;;10.50;99.90;;;;;;826755;173;26405;-82
2024/04/01 03:55:00;;;;;;;2.80;2.00;;;10.50;99.90;;;;;;823450;173;26401;-81
2024/04/01 03:57:27;;;;;;;4.73;2.20;;;10.60;99.90;;;;;;828460;173;26414;-80
2024/04/01 03:59:53;;;;;;;3.57;2.27;;;10.60;99.90;;;;;;830301;173;26409;-81
2024/04/01 04:02:20;;;;;;;4.50;2.27;;;10.70;99.90;;;;;;823515;173;26422;-80
2024/04/01 04:04:47;;;;;;;4.50;2.03;;;10.60;99.90;;;;;;823051;173;26409;-82
2024/04/01 04:07:13;;;;;;;4.10;2.27;;;10.60;99.90;;;;;;821000;173;26402;-81
2024/04/01 04:09:40;;;;;;;3.43;2.10;;;10.70;99.90;;;;;;823749;171;26559;-80
2024/04/01 04:12:07;;;;;;;4.47;2.30;;;10.70;99.90;;;;;;821104;173;26427;-80
2024/04/01 04:14:33;;;;;;;4.40;2.60;;;10.70;99.90;;;;;;825106;173;26415;-80
2024/04/01 04:17:00;;;;;;;5.73;2.70;;;10.70;99.90;;;;;;818545;174;26419;-81
2024/04/01 04:19:26;;;;;;;4.60;2.43;;;10.90;99.90;;;;;;818442;173;26458;-81
2024/04/01 04:21:55;;;;;;;5.20;2.10;;;11.00;99.90;;;;;;820685;174;26461;-81
2024/04/01 04:24:24;;;;;;;4.57;2.37;;;11.00;99.90;;;;;;819491;173;26404;-80
2024/04/01 04:26:46;;;;;;;3.27;2.00;;;11.10;99.90;;;;;;814788;173;26421;-80
2024/04/01 04:29:13;;;;;;;4.37;2.20;;;11.20;99.90;;;;;;822412;173;26420;-80
2024/04/01 04:31:40;;;;;;;5.90;2.13;;;11.30;99.90;;;;;;823093;173;26520;-81
2024/04/01 04:34:09;;;;;;;5.53;2.13;;;11.30;99.90;;;;;;819664;174;26576;-81
2024/04/01 04:36:32;;;;;;;5.00;2.57;;;11.40;99.90;;;;;;824390;173;26404;-81
2024/04/01 04:38:59;;;;;;;3.00;2.40;;;11.40;99.90;;;;;;829742;173;26433;-81
2024/04/01 04:41:26;;;;;;;4.27;2.33;;;11.40;99.90;;;;;;821118;173;26396;-80
2024/04/01 04:43:54;;;;;;;2.30;1.90;;;11.40;99.90;;;;;;821169;174;26396;-81
2024/04/01 04:46:19;;;;;;;3.20;2.27;;;11.40;99.90;;;;;;816009;174;26948;-80
2024/04/01 04:48:46;;;;;;;2.17;1.80;;;11.40;99.90;;;;;;822472;172;26636;-79
2024/04/01 04:51:12;;;;;;;4.67;2.07;;;11.30;99.90;;;;;;822320;173;26543;-79
2024/04/01 04:53:39;;;;;;;6.13;2.13;;;11.30;99.90;;;;;;822642;172;26536;-80
2024/04/01 04:56:05;;;;;;;2.53;2.10;;;11.30;99.90;;;;;;824507;172;26404;-79
2024/04/01 04:58:32;;;;;;;4.13;2.37;;;11.40;99.90;;;;;;824524;173;26418;-79
2024/04/01 05:01:05;;;;;;;4.30;2.37;;;11.30;99.90;;;;;;827622;173;26402;-83
2024/04/01 05:03:25;;;;;;;4.30;2.33;;;11.30;99.90;;;;;;824961;173;26418;-80
2024/04/01 05:05:52;;;;;;;6.30;2.33;;;11.30;99.90;;;;;;826146;173;26396;-80
2024/04/01 05:08:18;;;;;;;3.53;2.20;;;11.20;99.90;;;;;;826170;173;26521;-80
2024/04/01 05:10:45;;;;;;;3.90;1.93;;;11.20;99.90;;;;;;824122;173;26393;-81
2024/04/01 05:13:12;;;;;;;4.87;2.20;;;11.10;99.90;;;;;;828838;173;26399;-81
2024/04/01 05:15:38;;;;;;;2.97;2.10;;;11.00;99.90;;;;;;825714;172;26397;-80
2024/04/01 05:18:05;;;;;;;4.30;2.10;;;11.00;99.90;;;;;;820998;174;26401;-80
2024/04/01 05:20:32;;;;;;;6.03;2.00;;;11.00;99.90;;;;;;822225;174;27615;-81
2024/04/01 05:22:58;;;;;;;3.93;2.47;;;10.90;99.90;;;;;;824093;173;26426;-81
2024/04/01 05:25:25;;;;;;;3.60;2.40;;;10.90;99.90;;;;;;824545;173;26422;-80
2024/04/01 05:27:51;;;;;;;2.80;2.47;;;11.00;99.90;;;;;;827394;172;26410;-79
2024/04/01 05:30:20;;;;;;;6.30;2.50;;;10.90;99.90;;;;;;822591;173;26391;-79
2024/04/01 05:32:44;;;;;;;4.97;2.47;;;10.90;99.90;;;;;;816161;174;26563;-80
2024/04/01 05:35:16;;;;;;;3.17;2.10;;;10.90;99.90;;;;;;823378;173;26438;-81
2024/04/01 05:37:38;;;;;;;4.60;2.27;;;10.80;99.90;;;;;;820457;173;26392;-80
2024/04/01 05:40:05;;;;;;;7.33;2.40;;;10.80;99.90;;;;;;825727;172;26954;-79
2024/04/01 05:42:32;;;;;;;5.57;2.33;;;10.70;99.90;;;;;;825148;173;26440;-80
2024/04/01 05:44:58;;;;;;;5.90;2.00;;;10.70;99.90;;;;;;823435;173;26399;-80
2024/04/01 05:47:25;;;;;;;4.77;2.10;;;10.70;99.90;;;;;;818771;173;26990;-79
2024/04/01 05:49:52;;;;;;;3.27;2.00;;;10.60;99.90;;;;;;817738;174;26721;-80
2024/04/01 05:52:18;;;;;;;3.73;2.20;;;10.50;99.90;;;;;;830688;173;26969;-81
2024/04/01 05:54:45;;;;;;;3.10;2.27;;;10.40;99.90;;;;;;818836;173;26426;-81
2024/04/01 05:57:11;;;;;;;2.00;1.70;;;10.40;99.90;;;;;;831657;172;26422;-79
2024/04/01 05:59:38;;;;;;;4.20;1.80;;;10.30;99.90;;;;;;822271;172;26407;-80
2024/04/01 06:02:05;;;;;;;4.13;1.83;;;10.30;99.90;;;;;;818741;172;26470;-80
2024/04/01 06:04:31;;;;;;;3.90;1.90;;;10.30;99.90;;;;;;821793;172;26974;-79
2024/04/01 06:06:57;;;;;;;3.10;1.80;;;10.20;99.90;;;;;;828041;172;26400;-80
2024/04/01 06:09:24;;;;;;;3.63;2.30;;;10.10;99.90;;;;;;823839;172;26389;-80
2024/04/01 06:11:51;;;;;;;4.10;2.10;;;10.10;99.90;;;;;;822497;174;26397;-80
2024/04/01 06:14:17;;;;;;;3.87;1.90;;;10.20;99.90;;;;;;822526;174;26449;-80
2024/04/01 06:16:44;;;;;;;4.10;1.77;;;10.10;99.90;;;;;;824268;173;26452;-80
2024/04/01 06:19:11;;;;;;;2.73;2.10;;;10.10;99.90;;;;;;823794;173;26392;-81
2024/04/01 06:21:37;;;;;;;5.77;2.10;;;10.00;99.90;;;;;;816276;173;26421;-81
2024/04/01 06:24:04;;;;;;;2.90;1.77;;;10.00;99.90;;;;;;822056;173;26424;-81
2024/04/01 06:26:33;;;;;;;2.10;1.70;;;10.00;99.90;;;;;;825023;173;26417;-81
2024/04/01 06:28:57;;;;;;;3.73;2.30;;;10.00;99.90;;;;;;822688;171;26405;-81
2024/04/01 06:31:24;;;;;;;3.37;2.00;;;10.00;99.90;;;;;;829814;173;26542;-80
2024/04/01 06:33:50;;;;;;;2.90;2.37;;;10.00;99.90;;;;;;820423;172;26555;-80
2024/04/01 06:36:19;;;;;;;4.67;2.27;;;10.00;99.90;;;;;;819114;173;26407;-79
2024/04/01 06:38:44;;;;;;;5.57;2.60;;;10.00;99.90;;;;;;828823;173;26905;-79
2024/04/01 06:41:11;;;;;;;3.43;2.43;;;10.00;99.90;;;;;;819105;173;26401;-79
2024/04/01 06:43:37;;;;;;;7.10;2.87;;;10.00;99.90;;;;;;828874;173;26422;-81
2024/04/01 06:46:04;;;;;;;5.03;2.50;;;10.10;99.90;;;;;;818292;174;26414;-80
2024/04/01 06:48:30;;;;;;;5.37;2.60;;;10.20;99.90;;;;;;818038;173;26544;-80
2024/04/01 06:50:58;;;;;;;5.27;2.80;;;10.20;99.90;;;;;;826416;173;26398;-82
2024/04/01 06:53:24;;;;;;;5.73;2.40;;;10.10;99.90;;;;;;826826;172;26437;-81
2024/04/01 06:55:50;;;;;;;4.90;2.50;;;10.20;99.90;;;;;;816522;174;26443;-79
2024/04/01 06:58:17;;;;;;;3.07;2.60;;;10.30;99.90;;;;;;823290;173;26421;-79
2024/04/01 07:00:44;;;;;;;3.67;2.00;;;10.40;99.90;;;;;;821512;173;26399;-82
2024/04/01 07:03:10;;;;;;;4.20;2.33;;;10.40;99.90;;;;;;824644;173;27031;-81
2024/04/01 07:05:38;;;;;;;2.23;2.00;;;10.50;99.90;;;;;;826900;173;26536;-80
2024/04/01 07:08:03;;;;;;;3.20;1.80;;;10.50;99.90;;;;;;825728;173;26559;-82
2024/04/01 07:10:30;;;;;;;4.27;2.40;;;10.40;99.90;;;;;;823741;173;26410;-80
2024/04/01 07:12:57;;;;;;;2.93;1.87;;;10.50;99.90;;;;;;836104;170;26581;-80
2024/04/01 07:15:24;;;;;;;4.60;1.90;;;10.70;99.90;;;;;;827836;172;26560;-79
2024/04/01 07:17:50;;;;;;;1.97;1.77;;;10.80;99.90;;;;;;823086;172;26566;-82
2024/04/01 07:20:16;;;;;;;2.80;2.00;;;10.70;99.90;;;;;;820672;172;26417;-80
2024/04/01 07:22:43;;;;;;;3.63;2.23;;;10.70;99.90;;;;;;821031;171;26444;-84
2024/04/01 07:25:10;;;;;;;5.03;3.20;;;10.70;99.90;;;;;;812054;177;26496;-81
2024/04/01 07:27:36;;;;;;;14.40;6.33;;;10.70;99.90;;;;;;798587;180;26426;-81
2024/04/01 07:30:04;;;;;;;5.00;2.80;;;10.70;99.90;;;;;;807200;178;26433;-80
2024/04/01 07:32:31;;;;;;;5.70;2.57;;;10.60;99.90;;;;;;811570;176;26424;-81
2024/04/01 07:34:57;;;;;;;4.90;2.40;;;10.60;99.90;;;;;;805493;177;26441;-81
2024/04/01 07:37:24;;;;;;;6.93;3.07;;;10.70;99.90;;;;;;803797;178;26436;-80
2024/04/01 07:39:51;;;;;;;4.43;2.77;;;10.60;99.90;;;;;;807664;177;26466;-82
2024/04/01 07:42:17;;;;;;;2.90;2.30;;;10.60;99.90;;;;;;807310;178;26430;-80
2024/04/01 07:44:44;;;;;;;4.27;2.20;;;10.60;99.90;;;;;;792142;181;26454;-79
2024/04/01 07:47:10;;;;;;;4.70;2.80;;;10.60;99.90;;;;;;796818;181;26434;-80
2024/04/01 07:49:37;;;;;;;4.63;3.13;;;10.60;99.90;;;;;;813432;176;27057;-80
2024/04/01 07:52:04;;;;;;;3.53;2.93;;;10.60;99.90;;;;;;812459;176;26421;-80
2024/04/01 07:54:30;;;;;;;3.10;2.80;;;10.50;99.90;;;;;;801537;179;26476;-80
2024/04/01 07:56:57;;;;;;;3.93;2.70;;;10.50;99.90;;;;;;803636;178;26538;-79
2024/04/01 07:59:24;;;;;;;5.33;3.20;;;10.40;99.90;;;;;;812971;176;26436;-80
2024/04/01 08:01:51;;;;;;;6.43;3.80;;;10.40;99.90;;;;;;810517;177;26465;-79
2024/04/01 08:04:17;;;;;;;5.67;3.37;;;10.40;99.90;;;;;;799974;178;26417;-79
2024/04/01 08:06:45;;;;;;;4.47;3.30;;;10.40;99.90;;;;;;806451;178;26408;-81
2024/04/01 08:09:11;;;;;;;5.47;4.33;;;10.30;99.90;;;;;;804280;179;26413;-82
2024/04/01 08:11:38;;;;;;;9.60;5.23;;;10.40;99.90;;;;;;809802;177;26399;-81
2024/04/01 08:14:05;;;;;;;7.33;4.63;;;10.30;99.90;;;;;;803979;179;26436;-82
2024/04/01 08:16:43;;;;;;;7.50;5.67;;;10.30;99.90;;;;;;806422;178;26411;-82
2024/04/01 08:19:11;;;;;;;5.70;4.77;;;10.30;99.90;;;;;;814634;176;26468;-82
2024/04/01 08:21:39;;;;;;;6.60;5.10;;;10.30;99.90;;;;;;814388;176;26459;-82
2024/04/01 08:24:06;;;;;;;5.53;5.03;;;10.30;99.90;;;;;;814098;174;26457;-82
2024/04/01 08:26:33;;;;;;;7.50;5.37;;;10.20;99.90;;;;;;806278;176;26388;-82
2024/04/01 08:28:59;;;;;;;7.77;6.53;;;10.20;99.90;;;;;;806421;177;26405;-82
2024/04/01 08:31:26;;;;;;;9.37;7.40;;;10.20;99.90;;;;;;805188;177;26401;-82
2024/04/01 08:33:53;;;;;;;6.90;6.07;;;10.30;99.90;;;;;;811976;175;26402;-81
2024/04/01 08:36:20;;;;;;;8.63;7.17;;;10.20;99.90;;;;;;806016;179;26571;-82
2024/04/01 08:38:46;;;;;;;9.60;6.80;;;10.30;99.90;;;;;;806488;178;26411;-81
2024/04/01 08:41:16;;;;;;;10.40;7.00;;;10.30;99.90;;;;;;814229;177;26443;-81
2024/04/01 08:43:48;;;;;;;13.60;8.47;;;10.30;99.90;;;;;;815294;176;26460;-81
2024/04/01 08:46:15;;;;;;;13.90;9.77;;;10.30;99.90;;;;;;806818;177;26464;-82
2024/04/01 08:48:42;;;;;;;25.80;13.73;;;10.30;99.90;;;;;;813045;176;26438;-81
2024/04/01 08:51:09;;;;;;;11.70;8.77;;;10.40;99.90;;;;;;805133;178;26733;-82
2024/04/01 08:53:54;;;;;;;15.40;11.10;;;10.30;99.90;;;;;;808255;176;26440;-82
2024/04/01 08:56:20;;;;;;;12.63;8.63;;;10.30;99.90;;;;;;803192;176;26502;-82
2024/04/01 08:58:47;;;;;;;8.93;7.17;;;10.10;99.90;;;;;;797548;178;26462;-82
2024/04/01 09:01:13;;;;;;;13.03;8.60;;;10.10;99.90;;;;;;810368;176;26445;-82
2024/04/01 09:03:40;;;;;;;9.07;7.43;;;10.00;99.90;;;;;;802128;179;26436;-80
2024/04/01 09:06:07;;;;;;;12.10;8.30;;;10.10;99.90;;;;;;803296;178;26417;-82
2024/04/01 09:08:33;;;;;;;13.93;9.83;;;10.00;99.90;;;;;;803846;179;26424;-82
2024/04/01 09:11:00;;;;;;;17.70;11.73;;;10.10;99.90;;;;;;804045;179;26413;-82
2024/04/01 09:13:26;;;;;;;14.37;10.43;;;10.20;99.90;;;;;;806636;178;26430;-82
2024/04/01 09:15:53;;;;;;;9.30;7.03;;;10.20;99.90;;;;;;799246;178;26430;-83
2024/04/01 09:18:20;;;;;;;10.50;7.43;;;10.20;99.90;;;;;;804566;179;26425;-82
2024/04/01 09:20:46;;;;;;;10.80;8.87;;;10.30;99.90;;;;;;806923;176;26416;-81
2024/04/01 09:23:13;;;;;;;12.57;10.20;;;10.30;99.90;;;;;;804995;179;26420;-81
2024/04/01 09:25:39;;;;;;;21.50;15.47;;;10.40;99.90;;;;;;807520;177;26422;-81
2024/04/01 09:28:06;;;;;;;13.53;11.13;;;10.40;99.90;;;;;;807528;177;26428;-82
2024/04/01 09:30:33;;;;;;;17.27;12.73;;;10.50;99.90;;;;;;813937;175;26468;-83
2024/04/01 09:32:59;;;;;;;27.63;19.10;;;10.50;99.90;;;;;;804033;176;26736;-83
2024/04/01 09:35:26;;;;;;;15.77;12.43;;;10.50;99.90;;;;;;801135;177;26426;-82
2024/04/01 09:37:53;;;;;;;11.97;10.37;;;10.50;99.90;;;;;;811642;176;26419;-82
2024/04/01 09:40:19;;;;;;;27.20;19.57;;;10.50;99.90;;;;;;800286;177;26958;-80
2024/04/01 09:42:46;;;;;;;13.27;11.50;;;10.70;99.90;;;;;;808637;178;26443;-81
2024/04/01 09:45:12;;;;;;;11.33;9.57;;;10.70;99.90;;;;;;807737;176;27050;-81
2024/04/01 09:47:40;;;;;;;12.73;11.07;;;10.70;99.90;;;;;;814060;176;26410;-81
2024/04/01 09:50:06;;;;;;;13.10;10.97;;;10.70;99.90;;;;;;797202;178;26432;-81
2024/04/01 09:52:32;;;;;;;11.17;9.47;;;10.80;99.90;;;;;;795943;181;26430;-82
2024/04/01 09:55:16;;;;;;;16.07;12.80;;;10.80;99.90;;;;;;795536;181;26464;-82
2024/04/01 09:58:20;;;;;;;16.50;13.60;;;10.80;99.90;;;;;;792818;180;26450;-82
2024/04/01 10:00:52;;;;;;;13.03;11.30;;;10.90;99.90;;;;;;779228;179;26473;-81
2024/04/01 10:03:26;;;;;;;13.67;11.10;;;10.90;99.90;;;;;;793910;181;26541;-81
2024/04/01 10:06:15;;;;;;;17.43;14.63;;;10.80;99.90;;;;;;793501;181;26480;-80
2024/04/01 10:08:49;;;;;;;23.20;16.17;;;10.80;99.90;;;;;;811472;176;26468;-80
2024/04/01 10:11:24;;;;;;;15.40;12.73;;;10.80;99.90;;;;;;809574;176;27039;-81
2024/04/01 10:14:11;;;;;;;14.10;11.67;;;10.80;99.90;;;;;;809113;177;26438;-82
2024/04/01 10:16:45;;;;;;;14.93;11.77;;;10.60;99.90;;;;;;791058;176;26530;-81
2024/04/01 10:19:18;;;;;;;24.00;16.70;;;10.60;99.90;;;;;;802205;176;26440;-80
2024/04/01 10:22:07;;;;;;;17.73;13.07;;;10.60;99.90;;;;;;805564;177;26425;-81
2024/04/01 10:25:11;;;;;;;13.77;8.63;;;10.60;99.90;;;;;;802794;177;26452;-81
2024/04/01 10:27:57;;;;;;;10.40;7.57;;;10.50;99.90;;;;;;799883;175;26444;-82
2024/04/01 10:30:27;;;;;;;11.03;8.10;;;10.60;99.90;;;;;;807049;175;26495;-80
2024/04/01 10:33:01;;;;;;;16.37;9.40;;;10.60;99.90;;;;;;810989;176;26475;-79
2024/04/01 10:35:36;;;;;;;13.57;9.73;;;10.70;99.90;;;;;;798656;179;26412;-81
2024/04/01 10:38:24;;;;;;;9.17;7.67;;;10.80;99.90;;;;;;803210;179;26444;-81
2024/04/01 10:40:56;;;;;;;10.73;8.87;;;10.80;99.90;;;;;;803347;177;26425;-82
2024/04/01 10:43:34;;;;;;;6.77;5.47;;;10.90;99.90;;;;;;806153;178;26429;-81
2024/04/01 10:46:29;;;;;;;6.10;5.50;;;11.00;99.90;;;;;;814634;174;26456;-82
2024/04/01 10:49:29;;;;;;;13.70;8.77;;;10.90;99.90;;;;;;798613;177;26425;-81
2024/04/01 10:52:01;;;;;;;23.87;13.30;;;10.90;99.90;;;;;;791471;178;26550;-82
2024/04/01 10:54:28;;;;;;;33.37;18.07;;;10.90;99.90;;;;;;806666;176;26439;-82
2024/04/01 10:57:14;;;;;;;17.83;9.90;;;10.90;99.90;;;;;;806905;177;26436;-82
2024/04/01 10:59:47;;;;;;;20.13;14.00;;;11.00;99.90;;;;;;803773;178;26423;-82
2024/04/01 11:02:30;;;;;;;16.43;9.47;;;11.20;99.90;;;;;;803778;178;26440;-80
2024/04/01 11:08:18;;;;;;;11.80;7.90;;;11.30;99.90;;;;;;793298;177;26457;-82
2024/04/01 11:10:48;;;;;;;26.90;15.50;;;11.20;99.90;;;;;;796035;179;26458;-82
2024/04/01 11:13:15;;;;;;;32.80;17.30;;;11.10;99.90;;;;;;802897;179;26459;-81
2024/04/01 11:15:42;;;;;;;35.20;21.30;;;11.10;99.90;;;;;;802881;176;26421;-84
2024/04/01 11:18:38;;;;;;;45.80;22.67;;;11.10;99.90;;;;;;804791;178;26427;-81
2024/04/01 11:21:05;;;;;;;60.90;31.53;;;11.10;99.90;;;;;;785962;178;26427;-82
2024/04/01 11:23:53;;;;;;;33.23;19.77;;;11.20;99.90;;;;;;796658;179;26471;-82
2024/04/01 11:26:51;;;;;;;18.53;12.13;;;11.20;99.90;;;;;;793552;179;26469;-81
2024/04/01 11:29:34;;;;;;;33.47;19.77;;;11.30;99.90;;;;;;798938;179;26416;-81
2024/04/01 11:32:00;;;;;;;46.90;25.17;;;11.40;99.90;;;;;;805289;177;26411;-81
2024/04/01 11:34:32;;;;;;;49.67;24.40;;;11.40;99.90;;;;;;803477;176;27035;-81
2024/04/01 11:37:21;;;;;;;40.63;20.80;;;11.40;99.90;;;;;;803445;179;26424;-81
2024/04/01 11:39:46;;;;;;;30.57;15.10;;;11.50;99.90;;;;;;801703;177;26409;-80
2024/04/01 11:42:13;;;;;;;13.60;7.60;;;11.50;99.90;;;;;;812322;176;26474;-80
2024/04/01 11:44:40;;;;;;;27.33;17.30;;;11.50;99.90;;;;;;813914;177;26449;-80
2024/04/01 11:47:06;;;;;;;33.93;19.27;;;11.50;99.90;;;;;;814824;176;27049;-82
2024/04/01 11:49:39;;;;;;;56.70;25.63;;;11.50;99.90;;;;;;807106;176;26446;-81
2024/04/01 11:52:14;;;;;;;51.90;23.27;;;11.40;99.90;;;;;;797334;178;26526;-81
2024/04/01 11:54:41;;;;;;;12.10;7.07;;;11.30;99.90;;;;;;804916;178;26409;-81
2024/04/01 11:57:08;;;;;;;11.07;6.87;;;11.20;99.90;;;;;;808391;176;26424;-82
2024/04/01 11:59:36;;;;;;;12.20;7.77;;;11.20;99.90;;;;;;809141;176;26421;-80
2024/04/01 12:02:01;;;;;;;15.57;7.90;;;11.30;99.90;;;;;;806474;177;26432;-80
2024/04/01 12:04:27;;;;;;;11.50;6.87;;;11.40;99.90;;;;;;800131;176;26454;-82
2024/04/01 12:06:54;;;;;;;7.40;3.97;;;11.40;99.90;;;;;;806323;177;26420;-79
2024/04/01 12:09:20;;;;;;;22.83;10.40;;;11.50;99.90;;;;;;804513;179;26994;-80
2024/04/01 12:11:47;;;;;;;19.37;8.60;;;11.50;99.90;;;;;;807441;177;26416;-81
2024/04/01 12:14:14;;;;;;;17.40;8.03;;;11.50;99.90;;;;;;807270;177;26438;-80
2024/04/01 12:16:40;;;;;;;35.50;17.67;;;11.50;99.90;;;;;;805405;175;26416;-80
2024/04/01 12:19:07;;;;;;;103.43;52.27;;;11.60;99.90;;;;;;808163;177;26433;-80
2024/04/01 12:21:33;;;;;;;33.87;18.00;;;11.50;99.90;;;;;;803693;178;26464;-79
2024/04/01 12:24:00;;;;;;;40.20;19.63;;;11.70;99.90;;;;;;804802;177;26457;-80
2024/04/01 12:26:42;;;;;;;36.57;18.40;;;11.80;99.90;;;;;;801978;179;26410;-80
2024/04/01 12:29:08;;;;;;;39.73;20.57;;;11.90;99.90;;;;;;809188;175;26571;-81
2024/04/01 12:31:37;;;;;;;64.47;29.90;;;12.10;99.90;;;;;;804481;178;27052;-80
2024/04/01 12:34:02;;;;;;;91.23;41.50;;;12.00;99.90;;;;;;803693;178;26421;-81
2024/04/01 12:36:29;;;;;;;136.17;56.87;;;11.90;99.90;;;;;;803808;178;26951;-80
2024/04/01 12:38:55;;;;;;;123.53;55.00;;;11.90;99.90;;;;;;804589;176;26420;-80
2024/04/01 12:41:22;;;;;;;48.37;24.60;;;11.80;99.90;;;;;;801678;177;26408;-79
2024/04/01 12:43:51;;;;;;;69.20;35.23;;;11.70;99.90;;;;;;805764;177;27138;-80
2024/04/01 12:46:18;;;;;;;15.33;7.63;;;11.60;99.90;;;;;;806206;177;26406;-79
2024/04/01 12:48:45;;;;;;;50.00;22.97;;;11.60;99.90;;;;;;807119;177;26425;-79
2024/04/01 12:51:11;;;;;;;15.37;7.97;;;11.50;99.90;;;;;;804788;179;26401;-80